Time;durP1;ratioP1;P1;durP2;ratioP2;P2;SDS_P1;SDS_P2;PMS_P1;PMS_P2;Temp;Humidity;BMP_temperature;BMP_pressure;BME280_temperature;BME280_humidity;BME280_pressure;Samples;Min_cycle;Max_cycle;Signal;HPM_P1;HPM_P2
2023/10/16 00:00:29;;;;;;;;;;;10.70;99.90;;;;;;5035500;28;20394;-64
2023/10/16 00:03:01;;;;;;;;;;;10.60;99.90;;;;;;5035390;28;20002;-63
2023/10/16 00:05:31;;;;;;;;;;;10.60;99.90;;;;;;5033830;28;20072;-63
2023/10/16 00:07:57;;;;;;;;;;;10.40;99.90;;;;;;5035294;28;20044;-63
2023/10/16 00:10:26;;;;;;;;;;;10.40;99.90;;;;;;5035344;28;19986;-63
2023/10/16 00:12:51;;;;;;;;;;;10.30;99.90;;;;;;5035311;28;19990;-66
2023/10/16 00:15:17;;;;;;;;;;;10.20;99.90;;;;;;5033786;28;20009;-63
2023/10/16 00:17:43;;;;;;;;;;;10.20;99.90;;;;;;5033954;28;20089;-65
2023/10/16 00:20:16;;;;;;;;;;;10.10;99.90;;;;;;5035332;28;19989;-64
2023/10/16 00:22:44;;;;;;;;;;;10.10;99.90;;;;;;5035000;28;20032;-62
2023/10/16 00:25:10;;;;;;;;;;;10.20;99.90;;;;;;5035036;28;19983;-65
2023/10/16 00:27:37;;;;;;;;;;;10.30;99.90;;;;;;5035102;28;20048;-63
2023/10/16 00:30:07;;;;;;;;;;;10.30;99.90;;;;;;5034934;28;20030;-64
2023/10/16 00:32:36;;;;;;;;;;;10.20;99.90;;;;;;5035015;28;19993;-63
2023/10/16 00:35:03;;;;;;;;;;;10.10;99.90;;;;;;5034614;28;20006;-64
2023/10/16 00:37:31;;;;;;;;;;;10.00;99.90;;;;;;5034772;28;20387;-62
2023/10/16 00:39:57;;;;;;;;;;;10.00;99.90;;;;;;5034894;28;19982;-62
2023/10/16 00:42:23;;;;;;;;;;;9.90;99.90;;;;;;5034766;28;19993;-62
2023/10/16 00:44:55;;;;;;;;;;;9.90;99.90;;;;;;5033898;28;20028;-62
2023/10/16 00:47:21;;;;;;;;;;;9.80;99.90;;;;;;5034373;28;20428;-63
2023/10/16 00:49:49;;;;;;;;;;;9.80;99.90;;;;;;5034605;28;20128;-62
2023/10/16 00:52:15;;;;;;;;;;;9.90;99.90;;;;;;5034428;28;19990;-63
2023/10/16 00:54:41;;;;;;;;;;;9.90;99.90;;;;;;5034674;28;20006;-64
2023/10/16 00:57:08;;;;;;;;;;;10.00;99.90;;;;;;5034505;28;20040;-64
2023/10/16 00:59:35;;;;;;;;;;;10.00;99.90;;;;;;5034325;28;20070;-65
2023/10/16 01:02:07;;;;;;;;;;;10.00;99.90;;;;;;5034137;28;20044;-65
2023/10/16 01:04:33;;;;;;;;;;;10.10;99.90;;;;;;5034330;28;20522;-63
2023/10/16 01:07:00;;;;;;;;;;;10.10;99.90;;;;;;5034025;28;20017;-65
2023/10/16 01:09:26;;;;;;;;;;;10.00;99.90;;;;;;5034231;28;19982;-65
2023/10/16 01:11:52;;;;;;;;;;;10.10;99.90;;;;;;5034220;28;20089;-65
2023/10/16 01:14:18;;;;;;;;;;;10.10;99.90;;;;;;5033996;28;20006;-64
2023/10/16 01:16:44;;;;;;;;;;;10.10;99.90;;;;;;5033908;28;19982;-63
2023/10/16 01:19:10;;;;;;;;;;;10.10;99.90;;;;;;5034092;28;20455;-63
2023/10/16 01:21:36;;;;;;;;;;;10.10;99.90;;;;;;5033987;28;19986;-62
2023/10/16 01:24:12;;;;;;;;;;;10.20;99.90;;;;;;5034039;28;19983;-62
2023/10/16 01:26:38;;;;;;;;;;;10.20;99.90;;;;;;5034014;28;19981;-65
2023/10/16 01:29:07;;;;;;;;;;;10.20;99.90;;;;;;5033853;28;19983;-64
2023/10/16 01:31:40;;;;;;;;;;;10.20;99.90;;;;;;5033704;28;19989;-64
2023/10/16 01:34:10;;;;;;;;;;;10.20;99.90;;;;;;5033746;28;20344;-66
2023/10/16 01:36:37;;;;;;;;;;;10.20;99.90;;;;;;5033955;28;19982;-64
2023/10/16 01:39:08;;;;;;;;;;;10.20;99.90;;;;;;5033855;28;20077;-64
2023/10/16 01:41:34;;;;;;;;;;;10.20;99.90;;;;;;5033733;28;19990;-63
2023/10/16 01:44:08;;;;;;;;;;;10.20;99.90;;;;;;5033673;28;19986;-65
2023/10/16 01:46:33;;;;;;;;;;;10.10;99.90;;;;;;5033554;28;20036;-65
2023/10/16 01:49:01;;;;;;;;;;;10.10;99.90;;;;;;5033570;28;19982;-66
2023/10/16 01:51:29;;;;;;;;;;;10.10;99.90;;;;;;5033723;28;20456;-63
2023/10/16 01:53:55;;;;;;;;;;;10.00;99.90;;;;;;5033530;28;20440;-65
2023/10/16 01:56:22;;;;;;;;;;;10.00;99.90;;;;;;5034972;28;20037;-64
2023/10/16 01:58:49;;;;;;;;;;;10.10;99.90;;;;;;5040280;28;20428;-63
2023/10/16 02:01:16;;;;;;;;;;;10.10;99.90;;;;;;5040078;28;19982;-63
2023/10/16 02:03:44;;;;;;;;;;;10.20;99.90;;;;;;5038763;28;20002;-65
2023/10/16 02:06:13;;;;;;;;;;;10.20;99.90;;;;;;5040033;28;20068;-63
2023/10/16 02:08:40;;;;;;;;;;;10.40;99.90;;;;;;5040220;28;20021;-64
2023/10/16 02:11:10;;;;;;;;;;;10.40;99.90;;;;;;5040000;28;20392;-64
2023/10/16 02:13:36;;;;;;;;;;;10.60;99.90;;;;;;5040211;28;20072;-62
2023/10/16 02:16:02;;;;;;;;;;;10.60;99.90;;;;;;5038566;28;20106;-62
2023/10/16 02:18:36;;;;;;;;;;;10.70;99.90;;;;;;5039978;28;20345;-65
2023/10/16 02:21:02;;;;;;;;;;;10.70;99.90;;;;;;5040090;28;20025;-66
2023/10/16 02:23:30;;;;;;;;;;;10.70;99.90;;;;;;5039985;28;20025;-63
2023/10/16 02:26:01;;;;;;;;;;;10.70;99.90;;;;;;5039831;28;19990;-64
2023/10/16 02:28:33;;;;;;;;;;;10.80;99.90;;;;;;5039932;28;20340;-63
2023/10/16 02:31:13;;;;;;;;;;;10.80;99.90;;;;;;5039707;28;20040;-62
2023/10/16 02:33:46;;;;;;;;;;;10.80;99.90;;;;;;5039876;28;20061;-62
2023/10/16 02:36:12;;;;;;;;;;;10.90;99.90;;;;;;5039808;28;20006;-62
2023/10/16 02:38:37;;;;;;;;;;;10.90;99.90;;;;;;5039771;28;20047;-66
2023/10/16 02:41:03;;;;;;;;;;;10.90;99.90;;;;;;5039874;28;20039;-62
2023/10/16 02:43:29;;;;;;;;;;;10.90;99.90;;;;;;5039838;28;20464;-62
2023/10/16 02:45:56;;;;;;;;;;;10.80;99.90;;;;;;5039512;28;20131;-63
2023/10/16 02:48:21;;;;;;;;;;;10.80;99.90;;;;;;5039854;28;19982;-62
2023/10/16 02:50:50;;;;;;;;;;;10.80;99.90;;;;;;5039670;28;19989;-63
2023/10/16 02:53:22;;;;;;;;;;;10.80;99.90;;;;;;5039641;28;20133;-65
2023/10/16 02:55:57;;;;;;;;;;;10.90;99.90;;;;;;5039579;28;20013;-62
2023/10/16 02:58:26;;;;;;;;;;;10.90;99.90;;;;;;5039390;28;19985;-64
2023/10/16 03:00:55;;;;;;;;;;;11.00;99.90;;;;;;5039691;28;20463;-63
2023/10/16 03:03:26;;;;;;;;;;;11.00;99.90;;;;;;5038267;28;20446;-62
2023/10/16 03:05:52;;;;;;;;;;;11.00;99.90;;;;;;5039358;28;20013;-61
2023/10/16 03:08:22;;;;;;;;;;;11.00;99.90;;;;;;5037596;28;19983;-62
2023/10/16 03:10:48;;;;;;;;;;;10.90;99.90;;;;;;5036520;28;20351;-62
2023/10/16 03:13:14;;;;;;;;;;;10.90;99.90;;;;;;5036114;28;19983;-63
2023/10/16 03:15:47;;;;;;;;;;;10.90;99.90;;;;;;5036862;28;20042;-64
2023/10/16 03:18:17;;;;;;;;;;;10.80;99.90;;;;;;5035066;28;19994;-62
2023/10/16 03:20:46;;;;;;;;;;;10.90;99.90;;;;;;5036203;28;20017;-62
2023/10/16 03:23:18;;;;;;;;;;;10.90;99.90;;;;;;5036227;28;20452;-63
2023/10/16 03:28:11;;;;;;;;;;;10.90;99.90;;;;;;5035951;28;20396;-66
2023/10/16 03:30:39;;;;;;;;;;;10.90;99.90;;;;;;5036028;28;20025;-63
2023/10/16 03:33:05;;;;;;;;;;;11.00;99.90;;;;;;5035987;28;20065;-63
2023/10/16 03:35:31;;;;;;;;;;;11.00;99.90;;;;;;5034627;28;20121;-65
2023/10/16 03:38:10;;;;;;;;;;;11.10;99.90;;;;;;5036020;28;19983;-62
2023/10/16 03:40:35;;;;;;;;;;;11.10;99.90;;;;;;5035803;28;19982;-63
2023/10/16 03:43:01;;;;;;;;;;;11.10;99.90;;;;;;5035603;28;20388;-64
2023/10/16 03:45:27;;;;;;;;;;;11.10;99.90;;;;;;5035786;28;20359;-62
2023/10/16 03:48:03;;;;;;;;;;;11.00;99.90;;;;;;5035724;28;19982;-61
2023/10/16 03:50:38;;;;;;;;;;;11.00;99.90;;;;;;5035731;28;20326;-63
2023/10/16 03:53:07;;;;;;;;;;;11.00;99.90;;;;;;5035653;28;19985;-65
2023/10/16 03:55:49;;;;;;;;;;;11.00;99.90;;;;;;5035549;28;20041;-65
2023/10/16 03:58:16;;;;;;;;;;;10.90;99.90;;;;;;5035466;28;19982;-62
2023/10/16 04:00:52;;;;;;;;;;;10.90;99.90;;;;;;5035554;28;20023;-62
2023/10/16 04:03:19;;;;;;;;;;;11.00;99.90;;;;;;5035486;28;19998;-63
2023/10/16 04:05:47;;;;;;;;;;;11.00;99.90;;;;;;5035385;28;20014;-64
2023/10/16 04:08:14;;;;;;;;;;;11.00;99.90;;;;;;5035435;28;19986;-65
2023/10/16 04:10:43;;;;;;;;;;;11.00;99.90;;;;;;5035454;28;20074;-61
2023/10/16 04:13:09;;;;;;;;;;;11.00;99.90;;;;;;5035057;28;19982;-64
2023/10/16 04:20:56;;;;;;;;;;;10.80;99.90;;;;;;5034407;28;19986;-63
2023/10/16 04:23:37;;;;;;;;;;;10.60;99.90;;;;;;5035169;28;20032;-65
2023/10/16 04:47:42;;;;;;;;;;;10.20;99.90;;;;;;5034975;28;19986;-65
2023/10/16 04:50:09;;;;;;;;;;;10.30;99.90;;;;;;5034484;28;19982;-65
2023/10/16 05:00:56;;;;;;;;;;;10.40;99.90;;;;;;5034295;28;19982;-63
2023/10/16 05:16:53;;;;;;;;;;;10.30;99.90;;;;;;5034515;28;19989;-63
2023/10/16 06:16:18;;;;;;;;;;;11.20;99.90;;;;;;5036543;28;20012;-64
2023/10/16 06:18:47;;;;;;;;;;;11.10;99.90;;;;;;5038151;28;20044;-64
2023/10/16 06:21:16;;;;;;;;;;;11.10;99.90;;;;;;5040705;28;20468;-63
2023/10/16 06:23:42;;;;;;;;;;;11.10;99.90;;;;;;5047658;28;20439;-64
2023/10/16 06:26:08;;;;;;;;;;;11.00;99.90;;;;;;5039470;28;19986;-63
2023/10/16 06:28:34;;;;;;;;;;;11.00;99.90;;;;;;5028743;28;19994;-63
2023/10/16 06:31:05;;;;;;;;;;;11.00;99.90;;;;;;5047993;28;20001;-64
2023/10/16 06:33:31;;;;;;;;;;;11.10;99.90;;;;;;5050358;28;19997;-63
2023/10/16 06:35:57;;;;;;;;;;;11.10;99.90;;;;;;5051203;28;20052;-63
2023/10/16 06:38:23;;;;;;;;;;;11.20;99.90;;;;;;5042256;28;20048;-63
2023/10/16 06:40:55;;;;;;;;;;;11.30;99.90;;;;;;5034560;28;20005;-63
2023/10/16 06:43:25;;;;;;;;;;;11.40;99.90;;;;;;5033535;28;19982;-63
2023/10/16 06:45:58;;;;;;;;;;;11.40;99.90;;;;;;5043683;28;19986;-62
2023/10/16 06:48:27;;;;;;;;;;;11.40;99.90;;;;;;5029492;28;20415;-65
2023/10/16 06:50:53;;;;;;;;;;;11.40;99.90;;;;;;5042972;28;19986;-64
2023/10/16 06:53:25;;;;;;;;;;;11.30;99.90;;;;;;5052491;28;19989;-65
2023/10/16 06:55:51;;;;;;;;;;;11.20;99.90;;;;;;5055439;28;20140;-62
2023/10/16 06:58:21;;;;;;;;;;;11.10;99.90;;;;;;5054252;28;20087;-63
2023/10/16 07:00:47;;;;;;;;;;;10.90;99.90;;;;;;5053833;28;19982;-64
2023/10/16 07:03:13;;;;;;;;;;;10.80;99.90;;;;;;5053414;28;20009;-63
2023/10/16 07:05:42;;;;;;;;;;;10.90;99.90;;;;;;5046341;28;20391;-63
2023/10/16 07:08:16;;;;;;;;;;;10.90;99.90;;;;;;5034791;28;19992;-62
2023/10/16 07:10:53;;;;;;;;;;;11.00;99.90;;;;;;5052126;28;19981;-63
2023/10/16 07:13:28;;;;;;;;;;;11.00;99.90;;;;;;5050896;28;20080;-62
2023/10/16 07:15:56;;;;;;;;;;;11.00;99.90;;;;;;5044422;28;20092;-63
2023/10/16 07:18:24;;;;;;;;;;;11.20;99.90;;;;;;5028571;28;19989;-62
2023/10/16 07:20:59;;;;;;;;;;;11.10;99.90;;;;;;5037213;28;19986;-62
2023/10/16 07:23:25;;;;;;;;;;;11.30;99.90;;;;;;5035306;28;20310;-63
2023/10/16 07:28:20;;;;;;;;;;;11.60;98.50;;;;;;5039769;28;19997;-63
2023/10/16 07:30:45;;;;;;;;;;;12.30;97.50;;;;;;5052049;28;19986;-61
2023/10/16 07:33:15;;;;;;;;;;;14.40;92.70;;;;;;5052918;28;19997;-62
2023/10/16 07:35:42;;;;;;;;;;;16.30;71.60;;;;;;5052131;28;20009;-63
2023/10/16 07:38:09;;;;;;;;;;;18.00;58.60;;;;;;5041972;28;20002;-62
2023/10/16 07:40:37;;;;;;;;;;;18.70;52.00;;;;;;5031803;28;19986;-62
2023/10/16 07:43:03;;;;;;;;;;;19.90;49.90;;;;;;5032220;28;20104;-63
2023/10/16 07:45:34;;;;;;;;;;;21.80;47.70;;;;;;5044533;28;20405;-63
2023/10/16 07:48:17;;;;;;;;;;;23.60;43.10;;;;;;5046028;28;19993;-63
2023/10/16 07:50:43;;;;;;;;;;;24.80;40.90;;;;;;5033388;28;19985;-65
2023/10/16 07:53:09;;;;;;;;;;;25.50;37.20;;;;;;5044418;28;19998;-66
2023/10/16 07:55:40;;;;;;;;;;;25.60;35.90;;;;;;5033926;28;20486;-64
2023/10/16 07:58:15;;;;;;;;;;;24.60;38.40;;;;;;5050367;28;19989;-66
2023/10/16 08:00:57;;;;;;;;;;;23.40;38.60;;;;;;5050396;28;20102;-67
2023/10/16 08:03:23;;;;;;;;;;;22.00;38.20;;;;;;5052597;28;20009;-67
2023/10/16 08:05:48;;;;;;;;;;;20.40;41.90;;;;;;5052621;28;20014;-66
2023/10/16 08:08:15;;;;;;;;;;;19.20;45.70;;;;;;5052884;28;19993;-69
2023/10/16 08:10:41;;;;;;;;;;;18.30;48.70;;;;;;5054594;28;19982;-65
2023/10/16 08:13:13;;;;;;;;;;;17.80;48.60;;;;;;5053084;28;19986;-68
2023/10/16 08:15:48;;;;;;;;;;;17.40;51.30;;;;;;5036662;28;20053;-66
2023/10/16 08:18:14;;;;;;;;;;;16.90;52.10;;;;;;5036694;28;19993;-65
2023/10/16 08:20:49;;;;;;;;;;;16.60;52.30;;;;;;5053317;28;19982;-67
2023/10/16 08:23:15;;;;;;;;;;;16.30;53.90;;;;;;5053239;28;20032;-66
2023/10/16 08:25:41;;;;;;;;;;;15.90;56.00;;;;;;5054275;28;20369;-65
2023/10/16 08:28:20;;;;;;;;;;;15.60;58.10;;;;;;5054852;28;20440;-67
2023/10/16 08:33:12;;;;;;;;;;;16.20;57.40;;;;;;5055298;28;19986;-65
2023/10/16 08:35:41;;;;;;;;;;;16.10;54.80;;;;;;5054480;28;20056;-64
2023/10/16 08:38:25;;;;;;;;;;;15.90;54.80;;;;;;5045547;28;19990;-65
2023/10/16 08:40:57;;;;;;;;;;;15.60;55.30;;;;;;5043917;28;19988;-66
2023/10/16 08:43:39;;;;;;;;;;;15.30;56.60;;;;;;5052616;28;20347;-65
2023/10/16 08:46:18;;;;;;;;;;;15.40;55.20;;;;;;5050779;28;19986;-66
2023/10/16 08:48:48;;;;;;;;;;;16.10;56.10;;;;;;5034326;28;20397;-66
2023/10/16 08:51:16;;;;;;;;;;;16.40;52.10;;;;;;5034696;28;19983;-68
2023/10/16 08:53:45;;;;;;;;;;;16.00;51.60;;;;;;5036032;28;20032;-67
2023/10/16 08:56:12;;;;;;;;;;;16.20;53.50;;;;;;5054272;28;20013;-67
2023/10/16 08:58:39;;;;;;;;;;;16.30;53.40;;;;;;5054597;28;19982;-67
2023/10/16 09:01:07;;;;;;;;;;;16.40;51.50;;;;;;5053267;28;20029;-67
2023/10/16 09:03:51;;;;;;;;;;;16.40;49.90;;;;;;5053048;28;20103;-67
2023/10/16 09:06:22;;;;;;;;;;;16.50;51.00;;;;;;5052172;28;20422;-65
2023/10/16 09:08:51;;;;;;;;;;;17.00;50.30;;;;;;5033970;28;20359;-68
2023/10/16 09:11:19;;;;;;;;;;;17.50;51.60;;;;;;5050231;28;20039;-68
2023/10/16 09:13:49;;;;;;;;;;;17.80;46.40;;;;;;5053980;28;20435;-67
2023/10/16 09:16:15;;;;;;;;;;;17.90;47.10;;;;;;5036460;28;20009;-67
2023/10/16 09:18:42;;;;;;;;;;;18.20;48.60;;;;;;5036091;28;20035;-68
2023/10/16 09:21:13;;;;;;;;;;;18.30;48.30;;;;;;5035768;28;19989;-68
2023/10/16 09:23:40;;;;;;;;;;;18.30;45.40;;;;;;5052873;28;20071;-67
2023/10/16 09:26:07;;;;;;;;;;;18.40;44.50;;;;;;5035551;28;19992;-65
2023/10/16 09:28:33;;;;;;;;;;;18.60;44.50;;;;;;5051481;28;19990;-66
2023/10/16 09:31:01;;;;;;;;;;;19.10;47.40;;;;;;5046919;28;20371;-66
2023/10/16 09:33:27;;;;;;;;;;;19.50;45.20;;;;;;5034475;28;19994;-65
2023/10/16 09:36:00;;;;;;;;;;;20.00;40.20;;;;;;5030452;28;20010;-63
2023/10/16 09:38:32;;;;;;;;;;;19.80;39.70;;;;;;5031388;28;19986;-66
2023/10/16 09:49:13;;;;;;;;;;;19.10;41.40;;;;;;5052824;28;19988;-66
2023/10/16 09:51:44;;;;;;;;;;;18.70;42.30;;;;;;5052865;28;19981;-65
2023/10/16 09:54:11;;;;;;;;;;;18.20;44.20;;;;;;5053005;28;19982;-66
2023/10/16 09:56:38;;;;;;;;;;;18.00;44.70;;;;;;5053690;28;20004;-69
2023/10/16 09:59:17;;;;;;;;;;;17.50;46.20;;;;;;5035691;28;19993;-66
2023/10/16 10:01:42;;;;;;;;;;;17.20;45.50;;;;;;5035463;28;19994;-68
2023/10/16 10:04:10;;;;;;;;;;;16.90;47.10;;;;;;5035567;28;20474;-66
2023/10/16 10:06:39;;;;;;;;;;;16.40;47.60;;;;;;5035704;28;20021;-67
2023/10/16 10:11:39;;;;;;;;;;;16.30;47.90;;;;;;5053513;28;20021;-65
2023/10/16 10:16:51;;;;;;;;;;;16.40;47.90;;;;;;5051734;28;20425;-64
2023/10/16 10:19:35;;;;;;;;;;;16.10;48.10;;;;;;5034067;28;20045;-65
2023/10/16 10:22:17;;;;;;;;;;;16.10;49.50;;;;;;5033831;28;19993;-64
2023/10/16 10:24:48;;;;;;;;;;;16.10;48.80;;;;;;5016874;28;20380;-65
2023/10/16 10:27:16;;;;;;;;;;;16.20;49.00;;;;;;5046057;28;20017;-68
2023/10/16 10:29:44;;;;;;;;;;;16.20;48.60;;;;;;5053488;28;19986;-66
2023/10/16 10:32:12;;;;;;;;;;;16.50;50.40;;;;;;5053463;28;19982;-68
2023/10/16 10:34:38;;;;;;;;;;;16.90;50.60;;;;;;5037220;28;20053;-65
2023/10/16 10:37:24;;;;;;;;;;;17.20;49.20;;;;;;5051541;28;20416;-68
2023/10/16 10:39:50;;;;;;;;;;;17.60;48.80;;;;;;5052301;28;20605;-67
2023/10/16 10:42:24;;;;;;;;;;;17.60;45.80;;;;;;5055202;28;20073;-67
2023/10/16 10:44:54;;;;;;;;;;;17.80;46.40;;;;;;5037334;28;19985;-68
2023/10/16 10:47:24;;;;;;;;;;;18.20;45.70;;;;;;5055015;28;20001;-67
2023/10/16 10:49:50;;;;;;;;;;;18.60;45.40;;;;;;5037978;28;20403;-67
2023/10/16 10:52:17;;;;;;;;;;;19.30;40.50;;;;;;5056536;28;19986;-65
2023/10/16 10:54:42;;;;;;;;;;;19.40;40.00;;;;;;5037548;28;20010;-67
2023/10/16 10:57:18;;;;;;;;;;;19.60;39.50;;;;;;5053228;28;19988;-63
2023/10/16 11:05:02;;;;;;;;;;;20.30;40.40;;;;;;5055153;28;20021;-64
2023/10/16 11:07:29;;;;;;;;;;;20.50;39.80;;;;;;5055237;28;20060;-63
2023/10/16 11:09:57;;;;;;;;;;;20.60;37.00;;;;;;5038511;28;19986;-65
2023/10/16 11:12:25;;;;;;;;;;;20.50;36.50;;;;;;5053245;28;19982;-63
2023/10/16 11:14:53;;;;;;;;;;;20.70;35.90;;;;;;5053085;28;20059;-63
2023/10/16 11:17:34;;;;;;;;;;;20.60;35.80;;;;;;5035159;28;19986;-63
2023/10/16 11:20:27;;;;;;;;;;;20.10;35.40;;;;;;5034796;28;20037;-63
2023/10/16 11:23:00;;;;;;;;;;;19.90;36.30;;;;;;5033932;28;20029;-63
2023/10/16 11:25:31;;;;;;;;;;;20.00;35.00;;;;;;5031074;28;20429;-62
2023/10/16 11:28:07;;;;;;;;;;;20.20;37.20;;;;;;5031691;28;20033;-63
2023/10/16 11:30:38;;;;;;;;;;;20.20;35.90;;;;;;5031312;28;19982;-63
2023/10/16 11:33:04;;;;;;;;;;;20.20;33.70;;;;;;5032482;28;20388;-63
2023/10/16 11:35:34;;;;;;;;;;;20.30;35.00;;;;;;5035628;28;20012;-62
2023/10/16 11:37:59;;;;;;;;;;;20.60;33.40;;;;;;5035492;28;19989;-62
2023/10/16 11:40:39;;;;;;;;;;;20.60;34.80;;;;;;5034163;28;19998;-63
2023/10/16 11:43:08;;;;;;;;;;;20.70;33.00;;;;;;5035395;28;19981;-64
2023/10/16 11:45:33;;;;;;;;;;;20.60;34.10;;;;;;5035807;28;20040;-63
2023/10/16 11:50:58;;;;;;;;;;;20.60;36.40;;;;;;5055522;28;20355;-64
2023/10/16 11:53:23;;;;;;;;;;;20.70;33.60;;;;;;5054736;28;20040;-67
2023/10/16 11:55:52;;;;;;;;;;;20.70;35.30;;;;;;5055687;28;20009;-63
2023/10/16 11:58:18;;;;;;;;;;;20.80;34.40;;;;;;5053975;28;19982;-64
2023/10/16 12:00:53;;;;;;;;;;;20.90;37.00;;;;;;5055568;28;19981;-64
2023/10/16 12:03:19;;;;;;;;;;;21.30;35.10;;;;;;5055516;28;20001;-64
2023/10/16 12:05:45;;;;;;;;;;;21.60;34.70;;;;;;5052919;28;20013;-64
